Minerva Astra — 9HDW7 — position and weather

sailwx.info

Track history (hours):
 
Tides and Currents Weather Stations Pressure Air Temp Water Temp Dewpoint Dewpoint Depression Visibility Wind Speed Wind Dir Waves Ship Positions

Minerva Astra

Last reported at 2015-Jan-21 17:33 UTC. Time now 2015-Jan-26 22:36 UTC.
Position N 08°05' W 015°12'.

Length 248 m; draft 8.4 m.

Type: Tanker. MMSI: 256703000.

Date/timePositionNaut miles runAvg speedWind from/ knotsBaromVisibWave heightAir tempDewpointWater temp
2015-Jan-21 17:33N 08°05' W 015°12'1211.9
2015-Jan-21 16:33N 08°13' W 015°21'1211.9
2015-Jan-21 15:33N 08°21' W 015°30'1211.9
2015-Jan-21 14:33N 08°29' W 015°39'1010.4
2015-Jan-21 13:33N 08°36' W 015°47'1 0.9
2015-Jan-21 12:33N 08°37' W 015°47'2 1.0
2015-Jan-21 10:28N 08°39' W 015°47'14 9.9
2015-Jan-21 09:06N 08°52' W 015°50'713.4
2015-Jan-21 08:33N 08°57' W 015°55'4013.3
2015-Jan-21 05:32N 09°26' W 016°23'9813.2
2015-Jan-20 22:06N 10°37' W 017°33'712.9
2015-Jan-20 21:34N 10°42' W 017°37'2613.0
2015-Jan-20 19:33N 11°01' W 017°56'  
2015-Jan-14 12:10N 35°57' W 005°35'610.2
2015-Jan-14 11:33N 35°60' W 005°28'6 5.8
2015-Jan-14 10:33N 36°05' W 005°25'0 0.0
2015-Jan-14 09:25N 36°05' W 005°25'0 0.1
2015-Jan-14 08:31N 36°05' W 005°25'0 0.1
2015-Jan-14 07:31N 36°05' W 005°25'0 0.1
2015-Jan-14 06:25N 36°05' W 005°25'0 0.0
2015-Jan-14 05:28N 36°05' W 005°25'0 0.0
2015-Jan-14 04:28N 36°05' W 005°25'0 0.0
2015-Jan-14 03:31N 36°05' W 005°25'0 0.0
2015-Jan-14 02:31N 36°05' W 005°25'0 0.1
2015-Jan-14 01:28N 36°05' W 005°25'0 0.1
2015-Jan-14 00:31N 36°05' W 005°25'0 0.0
2015-Jan-13 21:19N 36°05' W 005°25'0 0.1
2015-Jan-13 19:19N 36°05' W 005°25'0 0.1
2015-Jan-13 18:31N 36°05' W 005°25'0 0.0
2015-Jan-13 17:31N 36°05' W 005°25'0 0.0
2015-Jan-13 16:31N 36°05' W 005°25'0 0.0
2015-Jan-13 15:31N 36°05' W 005°25'0 0.1
2015-Jan-13 14:28N 36°05' W 005°25'0 0.0
2015-Jan-13 13:31N 36°05' W 005°25'0 0.1
2015-Jan-13 12:31N 36°05' W 005°25'0 0.1
2015-Jan-13 11:31N 36°05' W 005°25'0 0.0
2015-Jan-13 10:28N 36°05' W 005°25'0 0.3
2015-Jan-13 09:33N 36°05' W 005°25'3 2.7
2015-Jan-13 08:33N 36°05' W 005°21'2 1.9
2015-Jan-13 07:33N 36°04' W 005°20'6 5.6
2015-Jan-13 06:33N 36°04' W 005°13'21711.4
2015-Jan-12 11:31N 37°17' W 000°58'1313.8
2015-Jan-12 10:33N 37°26' W 000°45'1913.5
2015-Jan-12 09:09N 37°40' W 000°28'813.4
2015-Jan-12 08:33N 37°47' W 000°23'1313.4
2015-Jan-12 07:33N 37°58' W 000°14'12213.3
2015-Jan-11 22:24N 39°49' E 000°52'1113.6
2015-Jan-11 21:33N 39°60' E 000°55'1413.5
2015-Jan-11 20:33N 40°13' E 000°59'1313.5
2015-Jan-11 19:33N 40°26' E 001°02'1313.2
2015-Jan-11 18:33N 40°39' E 001°06'  
Track history (hours):
 
Tides and Currents Weather Stations Pressure Air Temp Water Temp Dewpoint Dewpoint Depression Visibility Wind Speed Wind Dir Waves Ship Positions

Minerva Astra

Last reported at 2015-Jan-21 17:33 UTC. Time now 2015-Jan-26 22:36 UTC.
Position N 08°05' W 015°12'.

Length 248 m; draft 8.4 m.

Type: Tanker. MMSI: 256703000.

Date/timePositionNaut miles runAvg speedWind from/ knotsBaromVisibWave heightAir tempDewpointWater temp
2015-Jan-21 17:33N 08°05' W 015°12'1211.9
2015-Jan-21 16:33N 08°13' W 015°21'1211.9
2015-Jan-21 15:33N 08°21' W 015°30'1211.9
2015-Jan-21 14:33N 08°29' W 015°39'1010.4
2015-Jan-21 13:33N 08°36' W 015°47'1 0.9
2015-Jan-21 12:33N 08°37' W 015°47'2 1.0
2015-Jan-21 10:28N 08°39' W 015°47'14 9.9
2015-Jan-21 09:06N 08°52' W 015°50'713.4
2015-Jan-21 08:33N 08°57' W 015°55'4013.3
2015-Jan-21 05:32N 09°26' W 016°23'9813.2
2015-Jan-20 22:06N 10°37' W 017°33'712.9
2015-Jan-20 21:34N 10°42' W 017°37'2613.0
2015-Jan-20 19:33N 11°01' W 017°56'  
2015-Jan-14 12:10N 35°57' W 005°35'610.2
2015-Jan-14 11:33N 35°60' W 005°28'6 5.8
2015-Jan-14 10:33N 36°05' W 005°25'0 0.0
2015-Jan-14 09:25N 36°05' W 005°25'0 0.1
2015-Jan-14 08:31N 36°05' W 005°25'0 0.1
2015-Jan-14 07:31N 36°05' W 005°25'0 0.1
2015-Jan-14 06:25N 36°05' W 005°25'0 0.0
2015-Jan-14 05:28N 36°05' W 005°25'0 0.0
2015-Jan-14 04:28N 36°05' W 005°25'0 0.0
2015-Jan-14 03:31N 36°05' W 005°25'0 0.0
2015-Jan-14 02:31N 36°05' W 005°25'0 0.1
2015-Jan-14 01:28N 36°05' W 005°25'0 0.1
2015-Jan-14 00:31N 36°05' W 005°25'0 0.0
2015-Jan-13 21:19N 36°05' W 005°25'0 0.1
2015-Jan-13 19:19N 36°05' W 005°25'0 0.1
2015-Jan-13 18:31N 36°05' W 005°25'0 0.0
2015-Jan-13 17:31N 36°05' W 005°25'0 0.0
2015-Jan-13 16:31N 36°05' W 005°25'0 0.0
2015-Jan-13 15:31N 36°05' W 005°25'0 0.1
2015-Jan-13 14:28N 36°05' W 005°25'0 0.0
2015-Jan-13 13:31N 36°05' W 005°25'0 0.1
2015-Jan-13 12:31N 36°05' W 005°25'0 0.1
2015-Jan-13 11:31N 36°05' W 005°25'0 0.0
2015-Jan-13 10:28N 36°05' W 005°25'0 0.3
2015-Jan-13 09:33N 36°05' W 005°25'3 2.7
2015-Jan-13 08:33N 36°05' W 005°21'2 1.9
2015-Jan-13 07:33N 36°04' W 005°20'6 5.6
2015-Jan-13 06:33N 36°04' W 005°13'21711.4
2015-Jan-12 11:31N 37°17' W 000°58'1313.8
2015-Jan-12 10:33N 37°26' W 000°45'1913.5
2015-Jan-12 09:09N 37°40' W 000°28'813.4
2015-Jan-12 08:33N 37°47' W 000°23'1313.4
2015-Jan-12 07:33N 37°58' W 000°14'12213.3
2015-Jan-11 22:24N 39°49' E 000°52'1113.6
2015-Jan-11 21:33N 39°60' E 000°55'1413.5
2015-Jan-11 20:33N 40°13' E 000°59'1313.5
2015-Jan-11 19:33N 40°26' E 001°02'1313.2
2015-Jan-11 18:33N 40°39' E 001°06'  

Dump ship's entire track history